Terminal Aerodrome Forecast
Issued by NWS Twin Cities, MN

Home | Current Version | Previous Version | Graphics & Text | Print | Product List | Glossary On
Versions: 1 2 3 4 5 6 7 8 9 10 11 12 13 14
000
FTUS43 KMPX 212338
TAFEAU
TAF
KEAU 212338Z 2200/2224 17013G20KT P6SM OVC040
     FM220200 18010KT 4SM TSRA BKN020CB OVC050
     FM220400 28012KT P6SM -SHRA BKN025 OVC050
     FM220600 27008KT P6SM VCSH SCT025 OVC050
     FM221100 27006KT P6SM SCT050 OVC080
     FM221700 28008KT P6SM SCT250=

USA.gov is the U.S. government's official web portal to all federal, state and local government web resources and services.